sensor_id;sensor_type;location;lat;lon;timestamp;P1;durP1;ratioP1;P2;durP2;ratioP2
15915;SDS011;8057;47.830;-3.870;2022-08-03T00:01:53;1.40;;;1.30;;
15915;SDS011;8057;47.830;-3.870;2022-08-03T00:06:03;2.40;;;1.83;;
15915;SDS011;8057;47.830;-3.870;2022-08-03T00:10:12;3.10;;;1.80;;
15915;SDS011;8057;47.830;-3.870;2022-08-03T00:14:21;3.10;;;2.37;;
15915;SDS011;8057;47.830;-3.870;2022-08-03T00:18:32;2.83;;;2.27;;
15915;SDS011;8057;47.830;-3.870;2022-08-03T00:22:40;3.30;;;2.13;;
15915;SDS011;8057;47.830;-3.870;2022-08-03T00:26:49;3.53;;;2.60;;
15915;SDS011;8057;47.830;-3.870;2022-08-03T00:30:58;2.00;;;1.90;;
15915;SDS011;8057;47.830;-3.870;2022-08-03T00:35:10;3.33;;;2.97;;
15915;SDS011;8057;47.830;-3.870;2022-08-03T00:39:38;2.53;;;2.33;;
15915;SDS011;8057;47.830;-3.870;2022-08-03T00:43:49;4.50;;;2.57;;
15915;SDS011;8057;47.830;-3.870;2022-08-03T00:47:58;2.23;;;2.03;;
15915;SDS011;8057;47.830;-3.870;2022-08-03T00:52:09;4.17;;;2.73;;
15915;SDS011;8057;47.830;-3.870;2022-08-03T00:56:18;3.00;;;2.00;;
15915;SDS011;8057;47.830;-3.870;2022-08-03T01:00:27;5.40;;;2.67;;
15915;SDS011;8057;47.830;-3.870;2022-08-03T01:04:36;4.30;;;2.47;;
15915;SDS011;8057;47.830;-3.870;2022-08-03T01:08:47;2.20;;;1.90;;
15915;SDS011;8057;47.830;-3.870;2022-08-03T01:13:02;2.97;;;2.23;;
15915;SDS011;8057;47.830;-3.870;2022-08-03T01:17:39;2.83;;;2.40;;
15915;SDS011;8057;47.830;-3.870;2022-08-03T01:21:58;2.57;;;2.37;;
15915;SDS011;8057;47.830;-3.870;2022-08-03T01:26:46;2.87;;;2.50;;
15915;SDS011;8057;47.830;-3.870;2022-08-03T01:31:05;4.87;;;2.93;;
15915;SDS011;8057;47.830;-3.870;2022-08-03T01:35:17;4.77;;;3.13;;
15915;SDS011;8057;47.830;-3.870;2022-08-03T01:39:35;4.13;;;3.33;;
15915;SDS011;8057;47.830;-3.870;2022-08-03T01:43:46;2.70;;;2.50;;
15915;SDS011;8057;47.830;-3.870;2022-08-03T01:48:18;3.60;;;3.00;;
15915;SDS011;8057;47.830;-3.870;2022-08-03T01:52:28;4.70;;;3.30;;
15915;SDS011;8057;47.830;-3.870;2022-08-03T01:56:41;3.23;;;2.93;;
15915;SDS011;8057;47.830;-3.870;2022-08-03T02:00:52;4.30;;;2.90;;
15915;SDS011;8057;47.830;-3.870;2022-08-03T02:05:08;4.77;;;2.90;;
15915;SDS011;8057;47.830;-3.870;2022-08-03T02:09:19;2.77;;;2.47;;
15915;SDS011;8057;47.830;-3.870;2022-08-03T02:13:30;3.17;;;2.87;;
15915;SDS011;8057;47.830;-3.870;2022-08-03T02:17:41;3.37;;;3.00;;
15915;SDS011;8057;47.830;-3.870;2022-08-03T02:21:54;5.20;;;2.60;;
15915;SDS011;8057;47.830;-3.870;2022-08-03T02:26:08;2.73;;;2.30;;
15915;SDS011;8057;47.830;-3.870;2022-08-03T02:30:22;3.90;;;2.63;;
15915;SDS011;8057;47.830;-3.870;2022-08-03T02:34:36;2.20;;;2.00;;
15915;SDS011;8057;47.830;-3.870;2022-08-03T02:38:48;2.57;;;2.33;;
15915;SDS011;8057;47.830;-3.870;2022-08-03T02:43:01;6.23;;;2.87;;
15915;SDS011;8057;47.830;-3.870;2022-08-03T02:47:12;3.23;;;2.20;;
15915;SDS011;8057;47.830;-3.870;2022-08-03T02:51:22;1.60;;;1.50;;
15915;SDS011;8057;47.830;-3.870;2022-08-03T02:55:35;2.37;;;1.87;;
15915;SDS011;8057;47.830;-3.870;2022-08-03T02:59:51;2.67;;;2.20;;
15915;SDS011;8057;47.830;-3.870;2022-08-03T03:04:02;2.73;;;2.17;;
15915;SDS011;8057;47.830;-3.870;2022-08-03T03:08:15;1.87;;;1.77;;
15915;SDS011;8057;47.830;-3.870;2022-08-03T03:12:35;2.30;;;2.03;;
15915;SDS011;8057;47.830;-3.870;2022-08-03T03:16:45;2.70;;;1.33;;
15915;SDS011;8057;47.830;-3.870;2022-08-03T03:21:03;1.93;;;1.17;;
15915;SDS011;8057;47.830;-3.870;2022-08-03T03:25:14;2.80;;;1.20;;
15915;SDS011;8057;47.830;-3.870;2022-08-03T03:29:25;1.83;;;1.60;;
15915;SDS011;8057;47.830;-3.870;2022-08-03T03:33:34;2.03;;;1.60;;
15915;SDS011;8057;47.830;-3.870;2022-08-03T03:37:45;5.27;;;2.33;;
15915;SDS011;8057;47.830;-3.870;2022-08-03T03:41:53;2.77;;;2.27;;
15915;SDS011;8057;47.830;-3.870;2022-08-03T03:46:04;2.00;;;1.83;;
15915;SDS011;8057;47.830;-3.870;2022-08-03T03:50:13;2.73;;;2.23;;
15915;SDS011;8057;47.830;-3.870;2022-08-03T03:54:24;3.30;;;2.53;;
15915;SDS011;8057;47.830;-3.870;2022-08-03T03:58:35;4.10;;;1.93;;
15915;SDS011;8057;47.830;-3.870;2022-08-03T04:02:45;2.60;;;2.40;;
15915;SDS011;8057;47.830;-3.870;2022-08-03T04:06:53;2.93;;;1.87;;
15915;SDS011;8057;47.830;-3.870;2022-08-03T04:11:21;2.17;;;1.90;;
15915;SDS011;8057;47.830;-3.870;2022-08-03T04:15:37;2.97;;;2.00;;
15915;SDS011;8057;47.830;-3.870;2022-08-03T04:19:49;4.93;;;2.10;;
15915;SDS011;8057;47.830;-3.870;2022-08-03T04:24:01;4.23;;;2.30;;
15915;SDS011;8057;47.830;-3.870;2022-08-03T04:28:13;3.30;;;2.00;;
15915;SDS011;8057;47.830;-3.870;2022-08-03T04:32:37;2.80;;;2.23;;
15915;SDS011;8057;47.830;-3.870;2022-08-03T04:36:54;2.60;;;2.10;;
15915;SDS011;8057;47.830;-3.870;2022-08-03T04:41:06;2.70;;;2.00;;
15915;SDS011;8057;47.830;-3.870;2022-08-03T04:45:16;1.70;;;1.60;;
15915;SDS011;8057;47.830;-3.870;2022-08-03T04:49:26;2.33;;;1.57;;
15915;SDS011;8057;47.830;-3.870;2022-08-03T04:53:38;2.27;;;2.00;;
15915;SDS011;8057;47.830;-3.870;2022-08-03T04:57:47;1.97;;;1.60;;
15915;SDS011;8057;47.830;-3.870;2022-08-03T05:01:56;3.50;;;2.00;;
15915;SDS011;8057;47.830;-3.870;2022-08-03T05:06:05;3.57;;;2.87;;
15915;SDS011;8057;47.830;-3.870;2022-08-03T05:10:18;5.90;;;3.20;;
15915;SDS011;8057;47.830;-3.870;2022-08-03T05:14:27;3.40;;;2.70;;
15915;SDS011;8057;47.830;-3.870;2022-08-03T05:18:35;4.13;;;3.20;;
15915;SDS011;8057;47.830;-3.870;2022-08-03T05:22:44;5.07;;;2.67;;
15915;SDS011;8057;47.830;-3.870;2022-08-03T05:26:54;3.33;;;3.03;;
15915;SDS011;8057;47.830;-3.870;2022-08-03T05:31:03;2.60;;;2.17;;
15915;SDS011;8057;47.830;-3.870;2022-08-03T05:35:12;4.93;;;2.60;;
15915;SDS011;8057;47.830;-3.870;2022-08-03T05:39:41;2.97;;;2.67;;
15915;SDS011;8057;47.830;-3.870;2022-08-03T05:43:51;2.47;;;2.27;;
15915;SDS011;8057;47.830;-3.870;2022-08-03T05:48:01;3.43;;;2.27;;
15915;SDS011;8057;47.830;-3.870;2022-08-03T05:52:10;3.90;;;2.30;;
15915;SDS011;8057;47.830;-3.870;2022-08-03T05:56:23;2.30;;;2.10;;
15915;SDS011;8057;47.830;-3.870;2022-08-03T06:00:33;5.00;;;2.40;;
15915;SDS011;8057;47.830;-3.870;2022-08-03T06:04:42;4.23;;;2.60;;
15915;SDS011;8057;47.830;-3.870;2022-08-03T06:08:51;5.20;;;2.97;;
15915;SDS011;8057;47.830;-3.870;2022-08-03T06:13:00;3.67;;;2.57;;
15915;SDS011;8057;47.830;-3.870;2022-08-03T06:17:10;2.83;;;2.63;;
15915;SDS011;8057;47.830;-3.870;2022-08-03T06:21:20;2.83;;;2.53;;
15915;SDS011;8057;47.830;-3.870;2022-08-03T06:25:32;3.00;;;2.77;;
15915;SDS011;8057;47.830;-3.870;2022-08-03T06:29:41;4.33;;;3.40;;
15915;SDS011;8057;47.830;-3.870;2022-08-03T06:33:51;5.83;;;3.17;;
15915;SDS011;8057;47.830;-3.870;2022-08-03T06:38:20;4.63;;;3.17;;
15915;SDS011;8057;47.830;-3.870;2022-08-03T06:42:28;3.40;;;3.07;;
15915;SDS011;8057;47.830;-3.870;2022-08-03T06:46:40;3.93;;;3.10;;
15915;SDS011;8057;47.830;-3.870;2022-08-03T06:50:50;4.17;;;2.70;;
15915;SDS011;8057;47.830;-3.870;2022-08-03T06:54:59;2.80;;;2.60;;
15915;SDS011;8057;47.830;-3.870;2022-08-03T06:59:08;2.63;;;2.40;;
15915;SDS011;8057;47.830;-3.870;2022-08-03T07:03:36;2.40;;;2.10;;
15915;SDS011;8057;47.830;-3.870;2022-08-03T07:07:59;3.53;;;2.03;;
15915;SDS011;8057;47.830;-3.870;2022-08-03T07:12:08;3.67;;;1.70;;
15915;SDS011;8057;47.830;-3.870;2022-08-03T07:16:18;2.17;;;2.03;;
15915;SDS011;8057;47.830;-3.870;2022-08-03T07:20:28;2.53;;;1.60;;
15915;SDS011;8057;47.830;-3.870;2022-08-03T07:24:39;2.27;;;1.83;;
15915;SDS011;8057;47.830;-3.870;2022-08-03T07:28:49;2.97;;;2.20;;
15915;SDS011;8057;47.830;-3.870;2022-08-03T07:32:57;2.57;;;1.70;;
15915;SDS011;8057;47.830;-3.870;2022-08-03T07:37:06;2.20;;;1.93;;
15915;SDS011;8057;47.830;-3.870;2022-08-03T07:41:16;2.00;;;1.63;;
15915;SDS011;8057;47.830;-3.870;2022-08-03T07:45:25;2.23;;;1.60;;
15915;SDS011;8057;47.830;-3.870;2022-08-03T07:49:37;2.37;;;1.33;;
15915;SDS011;8057;47.830;-3.870;2022-08-03T07:53:47;2.17;;;1.47;;
15915;SDS011;8057;47.830;-3.870;2022-08-03T07:58:00;1.83;;;1.47;;
15915;SDS011;8057;47.830;-3.870;2022-08-03T08:02:10;1.70;;;1.47;;
15915;SDS011;8057;47.830;-3.870;2022-08-03T08:06:20;2.20;;;1.50;;
15915;SDS011;8057;47.830;-3.870;2022-08-03T08:10:29;1.70;;;1.50;;
15915;SDS011;8057;47.830;-3.870;2022-08-03T08:14:39;2.27;;;1.40;;
15915;SDS011;8057;47.830;-3.870;2022-08-03T08:18:51;1.43;;;1.33;;
15915;SDS011;8057;47.830;-3.870;2022-08-03T08:23:00;1.30;;;1.20;;
15915;SDS011;8057;47.830;-3.870;2022-08-03T08:27:30;1.50;;;1.40;;
15915;SDS011;8057;47.830;-3.870;2022-08-03T08:32:00;2.13;;;1.60;;
15915;SDS011;8057;47.830;-3.870;2022-08-03T08:36:09;1.43;;;1.30;;
15915;SDS011;8057;47.830;-3.870;2022-08-03T08:40:21;2.40;;;1.37;;
15915;SDS011;8057;47.830;-3.870;2022-08-03T08:44:30;3.03;;;1.40;;
15915;SDS011;8057;47.830;-3.870;2022-08-03T08:48:41;1.70;;;1.10;;
15915;SDS011;8057;47.830;-3.870;2022-08-03T08:52:51;2.87;;;1.07;;
15915;SDS011;8057;47.830;-3.870;2022-08-03T08:57:02;1.47;;;1.07;;
15915;SDS011;8057;47.830;-3.870;2022-08-03T09:01:31;2.20;;;1.13;;
15915;SDS011;8057;47.830;-3.870;2022-08-03T09:05:42;1.20;;;0.90;;
15915;SDS011;8057;47.830;-3.870;2022-08-03T09:10:01;6.17;;;1.30;;
15915;SDS011;8057;47.830;-3.870;2022-08-03T09:14:18;1.60;;;1.10;;
15915;SDS011;8057;47.830;-3.870;2022-08-03T09:18:45;2.07;;;1.20;;
15915;SDS011;8057;47.830;-3.870;2022-08-03T09:22:58;1.80;;;1.00;;
15915;SDS011;8057;47.830;-3.870;2022-08-03T09:27:28;1.53;;;0.97;;
15915;SDS011;8057;47.830;-3.870;2022-08-03T09:31:48;1.23;;;1.07;;
15915;SDS011;8057;47.830;-3.870;2022-08-03T09:36:07;2.20;;;1.13;;
15915;SDS011;8057;47.830;-3.870;2022-08-03T09:40:20;1.63;;;1.30;;
15915;SDS011;8057;47.830;-3.870;2022-08-03T09:44:42;2.83;;;1.07;;
15915;SDS011;8057;47.830;-3.870;2022-08-03T09:48:52;4.07;;;1.40;;
15915;SDS011;8057;47.830;-3.870;2022-08-03T09:53:17;1.73;;;1.10;;
15915;SDS011;8057;47.830;-3.870;2022-08-03T09:57:28;4.17;;;1.10;;
15915;SDS011;8057;47.830;-3.870;2022-08-03T10:01:37;2.13;;;1.00;;
15915;SDS011;8057;47.830;-3.870;2022-08-03T10:05:48;1.67;;;1.03;;
15915;SDS011;8057;47.830;-3.870;2022-08-03T10:10:03;2.13;;;1.10;;
15915;SDS011;8057;47.830;-3.870;2022-08-03T10:14:33;2.87;;;1.33;;
15915;SDS011;8057;47.830;-3.870;2022-08-03T10:18:43;3.27;;;1.27;;
15915;SDS011;8057;47.830;-3.870;2022-08-03T10:22:52;3.27;;;1.50;;
15915;SDS011;8057;47.830;-3.870;2022-08-03T10:27:02;2.13;;;1.40;;
15915;SDS011;8057;47.830;-3.870;2022-08-03T10:31:15;2.33;;;1.30;;
15915;SDS011;8057;47.830;-3.870;2022-08-03T10:35:25;2.10;;;1.33;;
15915;SDS011;8057;47.830;-3.870;2022-08-03T10:39:36;2.70;;;1.53;;
15915;SDS011;8057;47.830;-3.870;2022-08-03T10:44:02;2.00;;;1.27;;
15915;SDS011;8057;47.830;-3.870;2022-08-03T10:48:13;1.30;;;1.20;;
15915;SDS011;8057;47.830;-3.870;2022-08-03T10:52:23;2.03;;;1.27;;
15915;SDS011;8057;47.830;-3.870;2022-08-03T10:56:45;3.20;;;1.47;;
15915;SDS011;8057;47.830;-3.870;2022-08-03T11:10:42;2.33;;;1.60;;
15915;SDS011;8057;47.830;-3.870;2022-08-03T11:14:52;3.90;;;1.90;;
15915;SDS011;8057;47.830;-3.870;2022-08-03T11:19:02;4.63;;;1.70;;
15915;SDS011;8057;47.830;-3.870;2022-08-03T11:23:15;2.37;;;1.77;;
15915;SDS011;8057;47.830;-3.870;2022-08-03T11:27:46;3.13;;;2.03;;
15915;SDS011;8057;47.830;-3.870;2022-08-03T11:31:54;4.93;;;1.77;;
15915;SDS011;8057;47.830;-3.870;2022-08-03T11:36:04;2.33;;;1.50;;
15915;SDS011;8057;47.830;-3.870;2022-08-03T11:44:42;5.20;;;2.23;;
15915;SDS011;8057;47.830;-3.870;2022-08-03T11:48:53;4.13;;;1.90;;
15915;SDS011;8057;47.830;-3.870;2022-08-03T11:53:16;2.50;;;1.60;;
15915;SDS011;8057;47.830;-3.870;2022-08-03T11:57:30;4.93;;;1.93;;
15915;SDS011;8057;47.830;-3.870;2022-08-03T12:02:04;6.23;;;1.93;;
15915;SDS011;8057;47.830;-3.870;2022-08-03T12:06:14;3.90;;;1.87;;
15915;SDS011;8057;47.830;-3.870;2022-08-03T12:10:23;4.43;;;2.00;;
15915;SDS011;8057;47.830;-3.870;2022-08-03T12:14:35;5.33;;;2.27;;
15915;SDS011;8057;47.830;-3.870;2022-08-03T12:18:57;4.83;;;1.90;;
15915;SDS011;8057;47.830;-3.870;2022-08-03T12:23:08;6.40;;;2.33;;
15915;SDS011;8057;47.830;-3.870;2022-08-03T12:27:23;7.70;;;2.57;;
15915;SDS011;8057;47.830;-3.870;2022-08-03T12:31:36;5.30;;;2.13;;
15915;SDS011;8057;47.830;-3.870;2022-08-03T12:35:46;4.67;;;2.07;;
15915;SDS011;8057;47.830;-3.870;2022-08-03T12:40:00;4.83;;;2.20;;
15915;SDS011;8057;47.830;-3.870;2022-08-03T12:44:16;7.00;;;2.63;;
15915;SDS011;8057;47.830;-3.870;2022-08-03T12:48:26;6.83;;;2.50;;
15915;SDS011;8057;47.830;-3.870;2022-08-03T12:52:41;8.47;;;2.67;;
15915;SDS011;8057;47.830;-3.870;2022-08-03T12:56:57;7.87;;;3.03;;
15915;SDS011;8057;47.830;-3.870;2022-08-03T13:01:07;8.00;;;2.77;;
15915;SDS011;8057;47.830;-3.870;2022-08-03T13:05:20;7.53;;;2.50;;
15915;SDS011;8057;47.830;-3.870;2022-08-03T13:09:29;6.73;;;2.13;;
15915;SDS011;8057;47.830;-3.870;2022-08-03T13:13:48;8.80;;;2.80;;
15915;SDS011;8057;47.830;-3.870;2022-08-03T13:17:57;8.50;;;2.70;;
15915;SDS011;8057;47.830;-3.870;2022-08-03T13:22:14;8.67;;;2.70;;
15915;SDS011;8057;47.830;-3.870;2022-08-03T13:26:23;7.13;;;2.43;;
15915;SDS011;8057;47.830;-3.870;2022-08-03T13:30:32;6.17;;;2.27;;
15915;SDS011;8057;47.830;-3.870;2022-08-03T13:34:41;7.67;;;2.63;;
15915;SDS011;8057;47.830;-3.870;2022-08-03T13:38:51;6.70;;;2.63;;
15915;SDS011;8057;47.830;-3.870;2022-08-03T13:43:01;8.60;;;2.57;;
15915;SDS011;8057;47.830;-3.870;2022-08-03T13:47:09;7.43;;;2.67;;
15915;SDS011;8057;47.830;-3.870;2022-08-03T13:51:18;6.80;;;2.47;;
15915;SDS011;8057;47.830;-3.870;2022-08-03T13:55:29;6.30;;;3.00;;
15915;SDS011;8057;47.830;-3.870;2022-08-03T13:59:39;8.93;;;2.70;;
15915;SDS011;8057;47.830;-3.870;2022-08-03T14:03:47;8.40;;;2.23;;
15915;SDS011;8057;47.830;-3.870;2022-08-03T14:07:59;6.80;;;2.47;;
15915;SDS011;8057;47.830;-3.870;2022-08-03T14:12:12;8.57;;;2.23;;
15915;SDS011;8057;47.830;-3.870;2022-08-03T14:16:21;6.97;;;2.43;;
15915;SDS011;8057;47.830;-3.870;2022-08-03T14:20:30;6.67;;;2.43;;
15915;SDS011;8057;47.830;-3.870;2022-08-03T14:24:44;8.33;;;2.27;;
15915;SDS011;8057;47.830;-3.870;2022-08-03T14:28:56;6.07;;;2.17;;
15915;SDS011;8057;47.830;-3.870;2022-08-03T14:33:05;7.27;;;1.80;;
15915;SDS011;8057;47.830;-3.870;2022-08-03T14:37:13;6.50;;;2.20;;
15915;SDS011;8057;47.830;-3.870;2022-08-03T14:41:22;7.17;;;2.57;;
15915;SDS011;8057;47.830;-3.870;2022-08-03T14:45:32;8.13;;;2.43;;
15915;SDS011;8057;47.830;-3.870;2022-08-03T14:49:41;6.07;;;2.20;;
15915;SDS011;8057;47.830;-3.870;2022-08-03T14:54:10;6.07;;;1.90;;
15915;SDS011;8057;47.830;-3.870;2022-08-03T14:58:21;4.77;;;1.73;;
15915;SDS011;8057;47.830;-3.870;2022-08-03T15:02:33;3.57;;;1.43;;
15915;SDS011;8057;47.830;-3.870;2022-08-03T15:06:42;6.03;;;1.73;;
15915;SDS011;8057;47.830;-3.870;2022-08-03T15:10:56;6.50;;;1.93;;
15915;SDS011;8057;47.830;-3.870;2022-08-03T15:15:05;4.20;;;1.70;;
15915;SDS011;8057;47.830;-3.870;2022-08-03T15:19:16;12.10;;;1.97;;
15915;SDS011;8057;47.830;-3.870;2022-08-03T15:23:45;6.37;;;1.50;;
15915;SDS011;8057;47.830;-3.870;2022-08-03T15:27:54;4.80;;;1.53;;
15915;SDS011;8057;47.830;-3.870;2022-08-03T15:32:09;5.00;;;1.83;;
15915;SDS011;8057;47.830;-3.870;2022-08-03T15:36:19;3.87;;;1.77;;
15915;SDS011;8057;47.830;-3.870;2022-08-03T15:40:28;3.50;;;1.40;;
15915;SDS011;8057;47.830;-3.870;2022-08-03T15:44:37;7.20;;;1.97;;
15915;SDS011;8057;47.830;-3.870;2022-08-03T15:48:46;5.63;;;1.60;;
15915;SDS011;8057;47.830;-3.870;2022-08-03T15:52:57;4.63;;;1.40;;
15915;SDS011;8057;47.830;-3.870;2022-08-03T15:57:05;6.67;;;1.87;;
15915;SDS011;8057;47.830;-3.870;2022-08-03T16:01:14;5.87;;;1.90;;
15915;SDS011;8057;47.830;-3.870;2022-08-03T16:05:25;6.13;;;1.47;;
15915;SDS011;8057;47.830;-3.870;2022-08-03T16:09:35;5.17;;;2.00;;
15915;SDS011;8057;47.830;-3.870;2022-08-03T16:13:49;6.53;;;2.03;;
15915;SDS011;8057;47.830;-3.870;2022-08-03T16:18:18;3.67;;;1.57;;
15915;SDS011;8057;47.830;-3.870;2022-08-03T16:22:27;3.73;;;1.40;;
15915;SDS011;8057;47.830;-3.870;2022-08-03T16:26:39;1.73;;;0.90;;
15915;SDS011;8057;47.830;-3.870;2022-08-03T16:30:48;2.47;;;0.80;;
15915;SDS011;8057;47.830;-3.870;2022-08-03T16:34:57;4.33;;;0.90;;
15915;SDS011;8057;47.830;-3.870;2022-08-03T16:39:06;2.73;;;0.77;;
15915;SDS011;8057;47.830;-3.870;2022-08-03T16:43:16;1.53;;;0.73;;
15915;SDS011;8057;47.830;-3.870;2022-08-03T16:47:26;4.40;;;0.97;;
15915;SDS011;8057;47.830;-3.870;2022-08-03T16:51:35;2.87;;;0.90;;
15915;SDS011;8057;47.830;-3.870;2022-08-03T16:55:55;2.07;;;1.00;;
15915;SDS011;8057;47.830;-3.870;2022-08-03T17:00:06;2.60;;;1.20;;
15915;SDS011;8057;47.830;-3.870;2022-08-03T17:04:16;3.70;;;1.40;;
15915;SDS011;8057;47.830;-3.870;2022-08-03T17:08:25;5.07;;;1.40;;
15915;SDS011;8057;47.830;-3.870;2022-08-03T17:12:35;2.93;;;1.00;;
15915;SDS011;8057;47.830;-3.870;2022-08-03T17:16:46;1.50;;;1.07;;
15915;SDS011;8057;47.830;-3.870;2022-08-03T17:20:59;2.03;;;1.00;;
15915;SDS011;8057;47.830;-3.870;2022-08-03T17:25:10;3.27;;;0.90;;
15915;SDS011;8057;47.830;-3.870;2022-08-03T17:29:39;2.47;;;1.00;;
15915;SDS011;8057;47.830;-3.870;2022-08-03T17:33:52;2.53;;;0.90;;
15915;SDS011;8057;47.830;-3.870;2022-08-03T17:38:01;2.73;;;1.00;;
15915;SDS011;8057;47.830;-3.870;2022-08-03T17:42:16;2.90;;;0.90;;
15915;SDS011;8057;47.830;-3.870;2022-08-03T17:46:36;3.57;;;0.60;;
15915;SDS011;8057;47.830;-3.870;2022-08-03T17:50:49;2.27;;;0.77;;
15915;SDS011;8057;47.830;-3.870;2022-08-03T17:55:02;2.63;;;0.97;;
15915;SDS011;8057;47.830;-3.870;2022-08-03T17:59:36;1.50;;;0.87;;
15915;SDS011;8057;47.830;-3.870;2022-08-03T18:03:58;2.37;;;1.00;;
15915;SDS011;8057;47.830;-3.870;2022-08-03T18:08:22;2.53;;;1.00;;
15915;SDS011;8057;47.830;-3.870;2022-08-03T18:12:38;1.53;;;1.00;;
15915;SDS011;8057;47.830;-3.870;2022-08-03T18:16:59;1.70;;;1.20;;
15915;SDS011;8057;47.830;-3.870;2022-08-03T18:21:16;2.03;;;1.30;;
15915;SDS011;8057;47.830;-3.870;2022-08-03T18:25:26;2.87;;;1.10;;
15915;SDS011;8057;47.830;-3.870;2022-08-03T18:29:55;1.17;;;1.00;;
15915;SDS011;8057;47.830;-3.870;2022-08-03T18:34:05;2.97;;;1.23;;
15915;SDS011;8057;47.830;-3.870;2022-08-03T18:38:35;2.03;;;1.03;;
15915;SDS011;8057;47.830;-3.870;2022-08-03T18:42:53;2.63;;;1.40;;
15915;SDS011;8057;47.830;-3.870;2022-08-03T18:47:12;2.20;;;1.13;;
15915;SDS011;8057;47.830;-3.870;2022-08-03T18:51:28;2.90;;;1.33;;
15915;SDS011;8057;47.830;-3.870;2022-08-03T18:55:54;2.57;;;1.30;;
15915;SDS011;8057;47.830;-3.870;2022-08-03T19:00:10;2.30;;;1.50;;
15915;SDS011;8057;47.830;-3.870;2022-08-03T19:04:24;2.53;;;1.60;;
15915;SDS011;8057;47.830;-3.870;2022-08-03T19:08:40;2.53;;;1.50;;
15915;SDS011;8057;47.830;-3.870;2022-08-03T19:12:56;1.70;;;1.60;;
15915;SDS011;8057;47.830;-3.870;2022-08-03T19:17:09;1.77;;;1.43;;
15915;SDS011;8057;47.830;-3.870;2022-08-03T19:21:27;1.87;;;1.57;;
15915;SDS011;8057;47.830;-3.870;2022-08-03T19:25:36;1.80;;;1.70;;
15915;SDS011;8057;47.830;-3.870;2022-08-03T19:29:47;3.00;;;1.53;;
15915;SDS011;8057;47.830;-3.870;2022-08-03T19:34:07;1.53;;;1.30;;
15915;SDS011;8057;47.830;-3.870;2022-08-03T19:38:22;2.40;;;1.50;;
15915;SDS011;8057;47.830;-3.870;2022-08-03T19:42:35;2.17;;;1.60;;
15915;SDS011;8057;47.830;-3.870;2022-08-03T19:46:51;1.70;;;1.60;;
15915;SDS011;8057;47.830;-3.870;2022-08-03T19:51:11;2.10;;;1.80;;
15915;SDS011;8057;47.830;-3.870;2022-08-03T19:55:20;2.33;;;1.40;;
15915;SDS011;8057;47.830;-3.870;2022-08-03T19:59:31;2.10;;;1.70;;
15915;SDS011;8057;47.830;-3.870;2022-08-03T20:03:55;1.63;;;1.50;;
15915;SDS011;8057;47.830;-3.870;2022-08-03T20:08:06;3.40;;;1.93;;
15915;SDS011;8057;47.830;-3.870;2022-08-03T20:12:15;2.40;;;1.80;;
15915;SDS011;8057;47.830;-3.870;2022-08-03T20:16:33;2.60;;;1.60;;
15915;SDS011;8057;47.830;-3.870;2022-08-03T20:20:41;4.07;;;1.80;;
15915;SDS011;8057;47.830;-3.870;2022-08-03T20:24:54;2.20;;;1.70;;
15915;SDS011;8057;47.830;-3.870;2022-08-03T20:29:04;3.00;;;1.80;;
15915;SDS011;8057;47.830;-3.870;2022-08-03T20:33:15;2.60;;;1.50;;
15915;SDS011;8057;47.830;-3.870;2022-08-03T20:37:33;1.87;;;1.60;;
15915;SDS011;8057;47.830;-3.870;2022-08-03T20:41:44;4.07;;;1.83;;
15915;SDS011;8057;47.830;-3.870;2022-08-03T20:45:53;1.80;;;1.70;;
15915;SDS011;8057;47.830;-3.870;2022-08-03T20:50:22;2.20;;;1.60;;
15915;SDS011;8057;47.830;-3.870;2022-08-03T20:54:32;1.87;;;1.63;;
15915;SDS011;8057;47.830;-3.870;2022-08-03T20:58:46;1.77;;;1.67;;
15915;SDS011;8057;47.830;-3.870;2022-08-03T21:02:57;4.63;;;1.80;;
15915;SDS011;8057;47.830;-3.870;2022-08-03T21:07:06;2.33;;;1.97;;
15915;SDS011;8057;47.830;-3.870;2022-08-03T21:11:28;3.53;;;2.17;;
15915;SDS011;8057;47.830;-3.870;2022-08-03T21:15:49;1.73;;;1.63;;
15915;SDS011;8057;47.830;-3.870;2022-08-03T21:20:19;2.40;;;2.20;;
15915;SDS011;8057;47.830;-3.870;2022-08-03T21:24:32;2.00;;;1.90;;
15915;SDS011;8057;47.830;-3.870;2022-08-03T21:28:45;2.53;;;2.30;;
15915;SDS011;8057;47.830;-3.870;2022-08-03T21:32:56;4.00;;;2.50;;
15915;SDS011;8057;47.830;-3.870;2022-08-03T21:37:05;1.97;;;1.87;;
15915;SDS011;8057;47.830;-3.870;2022-08-03T21:41:15;2.70;;;2.50;;
15915;SDS011;8057;47.830;-3.870;2022-08-03T21:45:24;3.10;;;2.90;;
15915;SDS011;8057;47.830;-3.870;2022-08-03T21:49:35;4.00;;;3.17;;
15915;SDS011;8057;47.830;-3.870;2022-08-03T21:54:05;3.70;;;3.40;;
15915;SDS011;8057;47.830;-3.870;2022-08-03T21:58:15;5.43;;;3.20;;
15915;SDS011;8057;47.830;-3.870;2022-08-03T22:02:34;4.17;;;3.57;;
15915;SDS011;8057;47.830;-3.870;2022-08-03T22:06:49;3.50;;;3.10;;
15915;SDS011;8057;47.830;-3.870;2022-08-03T22:10:58;4.57;;;3.47;;
15915;SDS011;8057;47.830;-3.870;2022-08-03T22:15:10;3.80;;;3.50;;
15915;SDS011;8057;47.830;-3.870;2022-08-03T22:19:20;3.90;;;3.20;;
15915;SDS011;8057;47.830;-3.870;2022-08-03T22:23:31;3.70;;;3.13;;
15915;SDS011;8057;47.830;-3.870;2022-08-03T22:27:47;4.17;;;3.77;;
15915;SDS011;8057;47.830;-3.870;2022-08-03T22:31:56;3.50;;;3.20;;
15915;SDS011;8057;47.830;-3.870;2022-08-03T22:36:05;3.70;;;3.40;;
15915;SDS011;8057;47.830;-3.870;2022-08-03T22:40:18;4.00;;;3.50;;
15915;SDS011;8057;47.830;-3.870;2022-08-03T22:44:27;3.10;;;2.80;;
15915;SDS011;8057;47.830;-3.870;2022-08-03T22:48:36;2.70;;;2.50;;
15915;SDS011;8057;47.830;-3.870;2022-08-03T22:52:47;3.07;;;2.87;;
15915;SDS011;8057;47.830;-3.870;2022-08-03T22:56:57;3.77;;;2.80;;
15915;SDS011;8057;47.830;-3.870;2022-08-03T23:01:07;3.53;;;2.90;;
15915;SDS011;8057;47.830;-3.870;2022-08-03T23:05:20;4.23;;;3.83;;
15915;SDS011;8057;47.830;-3.870;2022-08-03T23:09:51;3.83;;;3.53;;
15915;SDS011;8057;47.830;-3.870;2022-08-03T23:14:03;3.40;;;3.10;;
15915;SDS011;8057;47.830;-3.870;2022-08-03T23:18:17;3.87;;;3.00;;
15915;SDS011;8057;47.830;-3.870;2022-08-03T23:22:28;4.40;;;3.50;;
15915;SDS011;8057;47.830;-3.870;2022-08-03T23:26:37;4.07;;;3.37;;
15915;SDS011;8057;47.830;-3.870;2022-08-03T23:30:49;3.80;;;3.00;;
15915;SDS011;8057;47.830;-3.870;2022-08-03T23:35:02;3.20;;;2.90;;
15915;SDS011;8057;47.830;-3.870;2022-08-03T23:39:51;3.13;;;2.70;;
15915;SDS011;8057;47.830;-3.870;2022-08-03T23:44:02;2.93;;;2.73;;
15915;SDS011;8057;47.830;-3.870;2022-08-03T23:48:14;3.33;;;2.47;;
15915;SDS011;8057;47.830;-3.870;2022-08-03T23:52:27;2.43;;;2.23;;
15915;SDS011;8057;47.830;-3.870;2022-08-03T23:56:48;2.87;;;2.53;;
